createdAt,value
2018-11-23T00:00:56.662Z,99.90
2018-11-23T00:03:28.058Z,99.90
2018-11-23T00:06:00.583Z,99.90
2018-11-23T00:08:51.110Z,99.90
2018-11-23T00:11:22.877Z,99.90
2018-11-23T00:13:57.305Z,99.90
2018-11-23T00:16:29.004Z,99.90
2018-11-23T00:19:00.386Z,99.90
2018-11-23T00:21:31.663Z,99.90
2018-11-23T00:24:04.178Z,99.90
2018-11-23T00:26:36.021Z,99.90
2018-11-23T00:29:07.105Z,99.90
2018-11-23T00:31:38.235Z,99.90
2018-11-23T00:34:19.121Z,99.90
2018-11-23T00:36:50.045Z,99.90
2018-11-23T00:39:21.807Z,99.90
2018-11-23T00:41:53.797Z,99.90
2018-11-23T00:44:25.326Z,99.90
2018-11-23T00:46:56.555Z,99.90
2018-11-23T00:49:27.712Z,99.90
2018-11-23T00:51:58.984Z,99.90
2018-11-23T00:54:30.588Z,99.90
2018-11-23T00:57:01.604Z,99.90
2018-11-23T00:59:33.862Z,99.90
2018-11-23T01:02:07.013Z,99.90
2018-11-23T01:04:38.273Z,99.90
2018-11-23T01:07:09.946Z,99.90
2018-11-23T01:09:41.770Z,99.90
2018-11-23T01:12:13.318Z,99.90
2018-11-23T01:14:45.116Z,99.90
2018-11-23T01:17:24.879Z,99.90
2018-11-23T01:19:55.752Z,99.90
2018-11-23T01:22:26.892Z,99.90
2018-11-23T01:24:58.361Z,99.90
2018-11-23T01:27:29.590Z,99.90
2018-11-23T01:30:03.071Z,99.90
2018-11-23T01:32:34.451Z,99.90
2018-11-23T01:35:05.907Z,99.90
2018-11-23T01:37:37.399Z,99.90
2018-11-23T01:40:10.602Z,99.90
2018-11-23T01:42:41.836Z,99.90
2018-11-23T01:45:15.950Z,99.90
2018-11-23T01:47:47.570Z,99.90
2018-11-23T01:50:24.033Z,99.90
2018-11-23T01:52:55.064Z,99.90
2018-11-23T01:55:28.120Z,99.90
2018-11-23T01:57:59.251Z,99.90
2018-11-23T02:00:31.198Z,99.90
2018-11-23T02:03:02.144Z,99.90
2018-11-23T02:05:33.529Z,99.90
2018-11-23T02:08:06.322Z,99.90
2018-11-23T02:10:37.721Z,99.90
2018-11-23T02:13:12.984Z,99.90
2018-11-23T02:15:44.616Z,99.90
2018-11-23T02:18:16.935Z,99.90
2018-11-23T02:20:48.128Z,99.90
2018-11-23T02:23:19.759Z,99.90
2018-11-23T02:25:51.517Z,99.90
2018-11-23T02:28:24.037Z,99.90
2018-11-23T02:30:57.274Z,99.90
2018-11-23T02:33:30.640Z,99.90
2018-11-23T02:36:03.481Z,99.90
2018-11-23T02:38:36.425Z,99.90
2018-11-23T02:41:09.257Z,99.90
2018-11-23T02:43:41.582Z,99.90
2018-11-23T02:46:14.154Z,99.90
2018-11-23T02:48:46.516Z,99.90
2018-11-23T02:51:20.239Z,99.90
2018-11-23T02:53:52.167Z,99.90
2018-11-23T02:56:24.118Z,99.90
2018-11-23T02:58:56.473Z,99.90
2018-11-23T03:01:28.969Z,99.90
2018-11-23T03:04:01.208Z,99.90
2018-11-23T03:06:34.253Z,99.90
2018-11-23T03:09:09.842Z,99.90
2018-11-23T03:11:42.960Z,99.90
2018-11-23T03:14:15.160Z,99.90
2018-11-23T03:16:47.051Z,99.90
2018-11-23T03:19:20.061Z,99.90
2018-11-23T03:21:52.428Z,99.90
2018-11-23T03:24:25.091Z,99.90
2018-11-23T03:26:57.564Z,99.90
2018-11-23T03:29:31.191Z,99.90
2018-11-23T03:32:02.645Z,99.90
2018-11-23T03:34:35.223Z,99.90
2018-11-23T03:37:07.834Z,99.90
2018-11-23T03:39:39.622Z,99.90
2018-11-23T03:42:11.375Z,99.90
2018-11-23T03:44:43.447Z,99.90
2018-11-23T03:47:15.794Z,99.90
2018-11-23T03:49:48.316Z,99.90
2018-11-23T03:52:21.042Z,99.90
2018-11-23T03:54:53.387Z,99.90
2018-11-23T03:57:26.069Z,99.90
2018-11-23T03:59:58.693Z,99.90
2018-11-23T04:02:31.233Z,99.90
2018-11-23T04:05:03.790Z,99.90
2018-11-23T04:07:37.253Z,99.90
2018-11-23T04:10:11.537Z,99.90
2018-11-23T04:12:43.770Z,99.90
2018-11-23T04:15:15.366Z,99.90
2018-11-23T04:17:46.769Z,99.90
2018-11-23T04:20:18.937Z,99.90
2018-11-23T04:22:50.184Z,99.90
2018-11-23T04:25:21.952Z,99.90
2018-11-23T04:27:53.517Z,99.90
2018-11-23T04:30:25.489Z,99.90
2018-11-23T04:32:56.512Z,99.90
2018-11-23T04:35:27.913Z,99.90
2018-11-23T04:37:58.747Z,99.90
2018-11-23T04:40:30.041Z,99.90
2018-11-23T04:43:01.021Z,99.90
2018-11-23T04:45:32.727Z,99.90
2018-11-23T04:48:03.598Z,99.90
2018-11-23T04:50:35.148Z,99.90
2018-11-23T04:53:06.556Z,99.90
2018-11-23T04:55:37.830Z,99.90
2018-11-23T04:58:10.121Z,99.90
2018-11-23T05:00:42.141Z,99.90
2018-11-23T05:03:13.192Z,99.90
2018-11-23T05:05:44.250Z,99.90
2018-11-23T05:08:16.284Z,99.90
2018-11-23T05:10:47.309Z,99.90
2018-11-23T05:13:18.219Z,99.90
2018-11-23T05:15:49.465Z,99.90
2018-11-23T05:18:20.509Z,99.90
2018-11-23T05:20:51.855Z,99.90
2018-11-23T05:23:22.682Z,99.90
2018-11-23T05:25:53.278Z,99.90
2018-11-23T05:28:24.448Z,99.90
2018-11-23T05:30:55.604Z,99.90
2018-11-23T05:33:26.806Z,99.90
2018-11-23T05:35:58.294Z,99.90
2018-11-23T05:38:29.133Z,99.90
2018-11-23T05:41:00.158Z,99.90
2018-11-23T05:43:31.397Z,99.90
2018-11-23T05:46:08.205Z,99.90
2018-11-23T05:48:39.069Z,99.90
2018-11-23T05:51:10.120Z,99.90
2018-11-23T05:53:43.592Z,99.90
2018-11-23T05:56:14.733Z,99.90
2018-11-23T05:58:46.697Z,99.90
2018-11-23T06:01:17.870Z,99.90
2018-11-23T06:03:48.838Z,99.90
2018-11-23T06:06:21.125Z,99.90
2018-11-23T06:08:54.594Z,99.90
2018-11-23T06:11:26.879Z,99.90
2018-11-23T06:13:58.614Z,99.90
2018-11-23T06:16:29.807Z,99.90
2018-11-23T06:19:01.479Z,99.90
2018-11-23T06:21:33.939Z,99.90
2018-11-23T06:24:06.031Z,99.90
2018-11-23T06:26:37.537Z,99.90
2018-11-23T06:29:08.355Z,99.90
2018-11-23T06:31:39.205Z,99.90
2018-11-23T06:34:09.787Z,99.90
2018-11-23T06:36:41.041Z,99.90
2018-11-23T06:39:12.324Z,99.90
2018-11-23T06:41:42.912Z,99.90
2018-11-23T06:44:13.862Z,99.90
2018-11-23T06:46:44.502Z,99.90
2018-11-23T06:49:15.596Z,99.90
2018-11-23T06:51:47.870Z,99.90
2018-11-23T06:54:18.845Z,99.90
2018-11-23T06:56:50.326Z,99.90
2018-11-23T06:59:20.838Z,99.90
2018-11-23T07:01:52.665Z,99.90
2018-11-23T07:04:23.648Z,99.90
2018-11-23T07:06:54.261Z,99.90
2018-11-23T07:09:25.051Z,99.90
2018-11-23T07:11:55.883Z,99.90
2018-11-23T07:14:26.690Z,99.90
2018-11-23T07:16:57.393Z,99.90
2018-11-23T07:19:29.111Z,99.90
2018-11-23T07:22:00.005Z,99.90
2018-11-23T07:24:32.774Z,99.90
2018-11-23T07:27:03.319Z,99.90
2018-11-23T07:29:34.100Z,99.90
2018-11-23T07:32:05.838Z,99.90
2018-11-23T07:34:37.264Z,99.90
2018-11-23T07:37:08.478Z,99.90
2018-11-23T07:39:49.462Z,99.90
2018-11-23T07:42:26.945Z,99.90
2018-11-23T07:44:57.567Z,99.90
2018-11-23T07:47:28.441Z,99.90
2018-11-23T07:49:59.206Z,99.90
2018-11-23T07:52:29.789Z,99.90
2018-11-23T07:55:05.558Z,99.90
2018-11-23T07:57:36.393Z,99.90
2018-11-23T08:00:18.980Z,99.90
2018-11-23T08:02:50.538Z,99.90
2018-11-23T08:05:23.194Z,99.90
2018-11-23T08:07:56.065Z,99.90
2018-11-23T08:10:26.907Z,99.90
2018-11-23T08:12:58.301Z,99.90
2018-11-23T08:15:30.660Z,99.90
2018-11-23T08:18:02.710Z,99.90
2018-11-23T08:20:34.342Z,99.90
2018-11-23T08:23:05.931Z,99.90
2018-11-23T08:25:37.159Z,99.90
2018-11-23T08:28:08.689Z,99.90
2018-11-23T08:30:40.568Z,99.90
2018-11-23T08:33:12.015Z,99.90
2018-11-23T08:35:43.563Z,99.90
2018-11-23T08:38:14.858Z,99.90
2018-11-23T08:40:46.310Z,99.90
2018-11-23T08:43:17.913Z,99.90
2018-11-23T08:45:49.260Z,99.90
2018-11-23T08:48:20.155Z,99.90
2018-11-23T08:50:52.150Z,99.90
2018-11-23T08:53:35.078Z,99.90
2018-11-23T08:56:06.832Z,99.90
2018-11-23T08:58:38.987Z,99.90
2018-11-23T09:01:10.997Z,99.90
2018-11-23T09:03:42.998Z,99.90
2018-11-23T09:06:14.859Z,99.90
2018-11-23T09:08:46.750Z,99.90
2018-11-23T09:11:18.366Z,99.90
2018-11-23T09:13:50.121Z,99.90
2018-11-23T09:16:22.261Z,99.90
2018-11-23T09:18:54.134Z,99.90
2018-11-23T09:21:25.917Z,99.90
2018-11-23T09:23:59.408Z,99.90
2018-11-23T09:26:31.453Z,99.90
2018-11-23T09:29:03.909Z,99.90
2018-11-23T09:31:35.228Z,99.90
2018-11-23T09:34:08.667Z,99.90
2018-11-23T09:36:39.887Z,99.90
2018-11-23T09:39:11.052Z,99.90
2018-11-23T09:41:43.144Z,99.90
2018-11-23T09:44:14.457Z,99.90
2018-11-23T09:46:46.099Z,99.90
2018-11-23T09:49:18.294Z,99.90
2018-11-23T09:51:49.732Z,99.90
2018-11-23T09:54:20.542Z,99.90
2018-11-23T09:56:51.924Z,99.40
2018-11-23T09:59:23.569Z,98.80
2018-11-23T10:01:55.339Z,97.20
2018-11-23T10:04:26.997Z,95.90
2018-11-23T10:06:58.486Z,94.80
2018-11-23T10:09:31.012Z,95.30
2018-11-23T10:12:03.894Z,93.90
2018-11-23T10:14:35.314Z,93.30
2018-11-23T10:17:06.976Z,92.00
2018-11-23T10:19:38.360Z,91.20
2018-11-23T10:22:10.391Z,90.40
2018-11-23T10:24:41.895Z,89.40
2018-11-23T10:27:13.322Z,88.40
2018-11-23T10:29:44.748Z,88.50
2018-11-23T10:32:17.415Z,88.00
2018-11-23T10:34:49.954Z,87.80
2018-11-23T10:37:22.712Z,87.50
2018-11-23T10:39:54.399Z,87.00
2018-11-23T10:42:27.370Z,86.70
2018-11-23T10:45:00.980Z,86.40
2018-11-23T10:47:32.190Z,85.70
2018-11-23T10:50:05.325Z,84.90
2018-11-23T10:52:36.816Z,84.30
2018-11-23T10:55:14.391Z,83.90
2018-11-23T10:57:46.326Z,83.20
2018-11-23T11:00:24.676Z,82.70
2018-11-23T11:03:03.212Z,82.10
2018-11-23T11:05:40.261Z,81.70
2018-11-23T11:08:13.336Z,81.80
2018-11-23T11:10:46.307Z,81.60
2018-11-23T11:13:16.830Z,81.20
2018-11-23T11:15:47.608Z,81.10
2018-11-23T11:18:18.340Z,80.90
2018-11-23T11:20:48.820Z,80.60
2018-11-23T11:23:19.445Z,80.50
2018-11-23T11:25:50.556Z,80.10
2018-11-23T11:28:21.143Z,79.80
2018-11-23T11:30:52.121Z,79.80
2018-11-23T11:33:22.842Z,80.70
2018-11-23T11:35:55.395Z,80.90
2018-11-23T11:38:25.815Z,80.50
2018-11-23T11:40:58.499Z,80.70
2018-11-23T11:43:29.345Z,80.30
2018-11-23T11:46:00.204Z,79.40
2018-11-23T11:48:31.023Z,77.30
2018-11-23T11:53:39.002Z,73.70
2018-11-23T11:56:10.575Z,71.90
2018-11-23T11:58:41.867Z,70.50
2018-11-23T12:01:12.692Z,68.60
2018-11-23T12:03:43.414Z,66.70
2018-11-23T12:06:14.117Z,66.20
2018-11-23T12:08:46.516Z,65.50
2018-11-23T12:11:17.116Z,65.70
2018-11-23T12:13:49.583Z,64.60
2018-11-23T12:16:20.239Z,63.70
2018-11-23T12:18:51.007Z,62.90
2018-11-23T12:21:22.295Z,64.00
2018-11-23T12:23:52.984Z,63.50
2018-11-23T12:26:23.985Z,63.20
2018-11-23T12:28:54.801Z,62.80
2018-11-23T12:31:25.486Z,62.80
2018-11-23T12:33:55.921Z,62.70
2018-11-23T12:36:27.373Z,62.60
2018-11-23T12:38:58.464Z,62.70
2018-11-23T12:41:30.373Z,62.20
2018-11-23T12:44:01.419Z,62.60
2018-11-23T12:46:32.260Z,62.20
2018-11-23T12:49:02.559Z,62.10
2018-11-23T12:51:34.003Z,62.60
2018-11-23T12:54:05.411Z,63.10
2018-11-23T12:56:36.738Z,63.50
2018-11-23T12:59:09.360Z,63.40
2018-11-23T13:01:41.961Z,63.40
2018-11-23T13:04:14.909Z,63.40
2018-11-23T13:06:45.639Z,62.80
2018-11-23T13:09:16.651Z,63.30
2018-11-23T13:11:47.479Z,63.20
2018-11-23T13:14:18.150Z,63.00
2018-11-23T13:16:48.892Z,62.60
2018-11-23T13:19:19.528Z,62.60
2018-11-23T13:21:50.662Z,62.10
2018-11-23T13:24:21.374Z,61.90
2018-11-23T13:26:52.112Z,61.20
2018-11-23T13:29:22.850Z,61.70
2018-11-23T13:31:53.829Z,62.90
2018-11-23T13:34:24.493Z,63.20
2018-11-23T13:36:55.409Z,62.40
2018-11-23T13:39:26.196Z,62.20
2018-11-23T13:41:56.930Z,61.70
2018-11-23T13:44:27.701Z,62.30
2018-11-23T13:46:58.203Z,63.30
2018-11-23T13:49:30.112Z,63.40
2018-11-23T13:52:00.588Z,63.40
2018-11-23T13:54:31.643Z,63.20
2018-11-23T13:57:02.307Z,62.90
2018-11-23T13:59:33.016Z,63.20
2018-11-23T14:02:03.727Z,63.80
2018-11-23T14:04:34.145Z,63.80
2018-11-23T14:07:05.197Z,63.30
2018-11-23T14:09:36.250Z,62.70
2018-11-23T14:12:07.052Z,62.70
2018-11-23T14:14:37.921Z,62.40
2018-11-23T14:17:08.954Z,62.90
2018-11-23T14:19:39.506Z,62.80
2018-11-23T14:22:10.486Z,62.90
2018-11-23T14:24:41.273Z,63.30
2018-11-23T14:27:12.185Z,63.50
2018-11-23T14:29:42.901Z,63.40
2018-11-23T14:32:14.417Z,63.50
2018-11-23T14:34:45.505Z,63.90
2018-11-23T14:37:16.041Z,63.80
2018-11-23T14:39:46.869Z,64.40
2018-11-23T14:42:17.730Z,66.30
2018-11-23T14:44:49.403Z,68.40
2018-11-23T14:47:21.384Z,70.70
2018-11-23T14:49:52.208Z,72.80
2018-11-23T14:52:24.212Z,75.10
2018-11-23T14:54:55.171Z,76.60
2018-11-23T14:57:25.776Z,78.10
2018-11-23T14:59:56.293Z,79.20
2018-11-23T15:02:27.553Z,80.00
2018-11-23T15:04:58.158Z,80.70
2018-11-23T15:07:28.693Z,81.50
2018-11-23T15:09:59.384Z,82.40
2018-11-23T15:12:29.849Z,82.90
2018-11-23T15:15:01.200Z,83.30
2018-11-23T15:17:33.450Z,83.90
2018-11-23T15:20:04.321Z,84.40
2018-11-23T15:22:35.047Z,84.80
2018-11-23T15:25:07.695Z,85.30
2018-11-23T15:27:39.707Z,86.30
2018-11-23T15:30:27.652Z,87.40
2018-11-23T15:33:00.741Z,88.10
2018-11-23T15:35:34.002Z,88.80
2018-11-23T15:38:09.904Z,89.40
2018-11-23T15:40:36.105Z,90.20
2018-11-23T15:43:09.194Z,90.80
2018-11-23T15:48:35.378Z,92.00
2018-11-23T15:51:06.687Z,92.40
2018-11-23T15:53:37.707Z,92.80
2018-11-23T15:56:08.680Z,93.00
2018-11-23T15:58:39.640Z,93.90
2018-11-23T16:01:10.893Z,93.90
2018-11-23T16:03:42.175Z,93.30
2018-11-23T16:06:13.565Z,93.00
2018-11-23T16:08:44.361Z,93.00
2018-11-23T16:11:15.543Z,93.10
2018-11-23T16:13:46.913Z,93.50
2018-11-23T16:16:17.611Z,94.20
2018-11-23T16:18:48.674Z,94.90
2018-11-23T16:21:20.938Z,95.60
2018-11-23T16:23:51.843Z,95.90
2018-11-23T16:26:23.056Z,96.90
2018-11-23T16:28:54.412Z,97.30
2018-11-23T16:31:27.629Z,97.50
2018-11-23T16:33:58.285Z,97.90
2018-11-23T16:36:30.057Z,98.40
2018-11-23T16:39:00.900Z,98.80
2018-11-23T16:41:31.989Z,99.50
2018-11-23T16:44:03.272Z,99.60
2018-11-23T16:46:34.601Z,98.80
2018-11-23T16:49:05.933Z,98.00
2018-11-23T16:51:36.729Z,97.30
2018-11-23T16:54:07.730Z,97.00
2018-11-23T16:56:42.652Z,97.20
2018-11-23T16:59:13.980Z,97.70
2018-11-23T17:01:44.460Z,98.20
2018-11-23T17:04:23.282Z,98.80
2018-11-23T17:06:55.248Z,99.10
2018-11-23T17:09:26.195Z,99.80
2018-11-23T17:11:58.732Z,99.90
2018-11-23T17:14:32.404Z,99.90
2018-11-23T17:17:05.149Z,99.90
2018-11-23T17:19:36.458Z,99.90
2018-11-23T17:22:13.329Z,99.90
2018-11-23T17:24:45.653Z,99.90
2018-11-23T17:27:17.531Z,99.90
2018-11-23T17:30:03.108Z,99.90
2018-11-23T17:32:35.589Z,99.90
2018-11-23T17:35:07.440Z,99.90
2018-11-23T17:37:39.304Z,99.90
2018-11-23T17:40:17.627Z,99.90
2018-11-23T17:43:00.052Z,99.90
2018-11-23T17:45:35.519Z,99.90
2018-11-23T17:48:06.255Z,99.90
2018-11-23T17:50:39.913Z,99.90
2018-11-23T17:53:12.035Z,99.90
2018-11-23T17:55:44.500Z,99.90
2018-11-23T17:58:17.568Z,99.90
2018-11-23T18:00:49.250Z,99.90
2018-11-23T18:03:19.698Z,99.90
2018-11-23T18:05:50.277Z,99.90
2018-11-23T18:08:20.904Z,99.90
2018-11-23T18:10:51.926Z,99.90
2018-11-23T18:13:30.755Z,99.90
2018-11-23T18:16:13.832Z,99.90
2018-11-23T18:18:46.392Z,99.90
2018-11-23T18:21:17.476Z,99.90
2018-11-23T18:23:48.424Z,99.90
2018-11-23T18:26:19.282Z,99.90
2018-11-23T18:28:50.851Z,99.90
2018-11-23T18:31:22.871Z,99.90
2018-11-23T18:33:55.524Z,99.90
2018-11-23T18:36:30.079Z,99.90
2018-11-23T18:39:01.736Z,99.90
2018-11-23T18:41:32.607Z,99.90
2018-11-23T18:44:04.763Z,99.90
2018-11-23T18:46:37.526Z,99.90
2018-11-23T18:49:07.895Z,99.90
2018-11-23T18:51:39.304Z,99.90
2018-11-23T18:54:10.204Z,99.90
2018-11-23T18:56:41.053Z,99.90
2018-11-23T18:59:12.542Z,99.90
2018-11-23T19:01:43.491Z,99.90
2018-11-23T19:04:14.032Z,99.90
2018-11-23T19:06:45.377Z,99.90
2018-11-23T19:09:16.007Z,99.90
2018-11-23T19:11:46.692Z,99.90
2018-11-23T19:14:17.545Z,99.90
2018-11-23T19:16:49.306Z,99.90
2018-11-23T19:19:20.710Z,99.90
2018-11-23T19:21:52.571Z,99.90
2018-11-23T19:24:23.104Z,99.90
2018-11-23T19:26:53.550Z,99.90
2018-11-23T19:29:26.213Z,99.90
2018-11-23T19:31:56.557Z,99.90
2018-11-23T19:34:29.115Z,99.90
2018-11-23T19:37:00.284Z,99.90
2018-11-23T19:39:31.501Z,99.90
2018-11-23T19:42:03.387Z,99.90
2018-11-23T19:44:34.092Z,99.90
2018-11-23T19:47:04.568Z,99.90
2018-11-23T19:49:35.149Z,99.90
2018-11-23T19:52:05.984Z,99.90
2018-11-23T19:54:37.042Z,99.90
2018-11-23T19:57:08.980Z,99.90
2018-11-23T19:59:39.678Z,99.90
2018-11-23T20:02:11.813Z,99.90
2018-11-23T20:04:45.620Z,99.90
2018-11-23T20:07:18.270Z,99.90
2018-11-23T20:09:49.741Z,99.90
2018-11-23T20:12:20.683Z,99.90
2018-11-23T20:14:51.856Z,99.90
2018-11-23T20:17:22.456Z,99.90
2018-11-23T20:19:53.836Z,99.90
2018-11-23T20:22:24.333Z,99.90
2018-11-23T20:24:57.195Z,99.90
2018-11-23T20:27:28.113Z,99.90
2018-11-23T20:29:58.796Z,99.90
2018-11-23T20:32:30.540Z,99.90
2018-11-23T20:35:02.132Z,99.90
2018-11-23T20:37:33.258Z,99.90
2018-11-23T20:40:04.486Z,99.90
2018-11-23T20:42:35.306Z,99.90
2018-11-23T20:45:08.724Z,99.90
2018-11-23T20:47:40.009Z,99.90
2018-11-23T20:50:14.069Z,99.90
2018-11-23T20:52:46.851Z,99.90
2018-11-23T20:55:19.063Z,99.90
2018-11-23T20:57:50.978Z,99.90
2018-11-23T21:00:23.740Z,99.90
2018-11-23T21:02:57.717Z,99.90
2018-11-23T21:05:29.763Z,99.90
2018-11-23T21:08:00.703Z,99.90
2018-11-23T21:10:38.396Z,99.90
2018-11-23T21:13:09.195Z,99.90
2018-11-23T21:15:41.450Z,99.90
2018-11-23T21:18:12.290Z,99.90
2018-11-23T21:20:45.041Z,99.90
2018-11-23T21:23:16.779Z,99.90
2018-11-23T21:25:58.881Z,99.90
2018-11-23T21:28:30.052Z,99.90
2018-11-23T21:31:01.729Z,99.90
2018-11-23T21:33:34.810Z,99.90
2018-11-23T21:36:06.630Z,99.90
2018-11-23T21:38:59.107Z,99.90
2018-11-23T21:41:31.660Z,99.90
2018-11-23T21:44:03.045Z,99.90
2018-11-23T21:46:33.741Z,99.90
2018-11-23T21:49:05.538Z,99.90
2018-11-23T21:51:45.455Z,99.90
2018-11-23T21:54:16.288Z,99.90
2018-11-23T21:56:46.521Z,99.90
2018-11-23T21:59:18.170Z,99.90
2018-11-23T22:01:49.471Z,99.90
2018-11-23T22:04:21.716Z,99.90
2018-11-23T22:06:53.101Z,99.90
2018-11-23T22:09:27.580Z,99.90
2018-11-23T22:12:07.213Z,99.90
2018-11-23T22:17:57.352Z,99.90
2018-11-23T22:20:30.331Z,99.90
2018-11-23T22:23:01.047Z,99.90
2018-11-23T22:25:34.742Z,99.90
2018-11-23T22:28:05.299Z,99.90
2018-11-23T22:30:35.851Z,99.90
2018-11-23T22:33:07.485Z,99.90
2018-11-23T22:35:38.063Z,99.90
2018-11-23T22:38:08.605Z,99.90
2018-11-23T22:40:39.599Z,99.90
2018-11-23T22:43:10.598Z,99.90
2018-11-23T22:45:42.685Z,99.90
2018-11-23T22:48:14.155Z,99.90
2018-11-23T22:50:45.303Z,99.90
2018-11-23T22:53:17.272Z,99.90
2018-11-23T22:55:49.324Z,99.90
2018-11-23T22:58:22.834Z,99.90
2018-11-23T23:00:57.938Z,99.90
2018-11-23T23:03:30.623Z,99.90
2018-11-23T23:06:01.549Z,99.90
2018-11-23T23:08:33.905Z,99.90
2018-11-23T23:11:05.414Z,99.90
2018-11-23T23:13:36.642Z,99.90
2018-11-23T23:16:09.410Z,99.90
2018-11-23T23:18:40.173Z,99.90
2018-11-23T23:21:12.151Z,99.90
2018-11-23T23:23:43.584Z,99.90
2018-11-23T23:26:14.874Z,99.90
2018-11-23T23:28:45.995Z,99.90
2018-11-23T23:31:18.173Z,99.90
2018-11-23T23:33:49.369Z,99.90
2018-11-23T23:36:20.832Z,99.90
2018-11-23T23:38:52.199Z,99.90
2018-11-23T23:41:23.911Z,99.90
2018-11-23T23:43:55.412Z,99.90
2018-11-23T23:46:26.129Z,99.90
2018-11-23T23:48:58.058Z,99.90
2018-11-23T23:51:29.034Z,99.90
2018-11-23T23:54:00.780Z,99.90
2018-11-23T23:56:31.534Z,99.90
2018-11-23T23:59:15.324Z,99.90
